SondeTracker

Meteorological Radiosondes Database

Operations

Sounding was ended - last measurement: 2022-12-07 13:18:43z

MAP
About Radiosonde

Number: U3614730

Launch Site: Boulder [CO] (US)

Type: RS41-SGP

AUX: NO

Frequency: 403.000 MHz

Max Speed: 254 km/h at 10695 m

Average Speed: 87.67 km/h

Max Altitude: 28180 m

Average Ascent Speed: 4.76 m/s

Average Descent Speed: 33.80 m/s

Status: UNKNOWN

Status Changes
Launch Site Type AUX Frequency Status Finder Landing Point Description Changes made by
APRS Statistics

Received Frames: 86

First Frame [UTC]: 2022-12-07 12:22:42z

Last Frame [UTC]: 2022-12-07 13:18:43z

Receivers: KF0FCV

Flight Time: 00:56:01 h

Distance From First Measurement: 73.27 km

Nearest City: Castle Pines [CO] (US) [2.85 km]

Nearest Hunter: KB3ZOW [5.11 km]

Ground Altitude: 1916 m

Distance from QTH: 0.00 km

APRS Data
Receiver Number Date/Time [UTC] φ λ Course [°] Speed [km/h] Altitude [m] Description
KF0FCVU36147302022-12-07 13:18:4339.485-104.88757333438Clb=-18.9m/s t=-5.0C h=51.2% p=667.7hPa 403.000 MHz Type=RS41-SGP ser=U3614730 Radiosonde
KF0FCVU36147302022-12-07 13:18:1339.4842-104.88970443790Clb=-21.4m/s t=-7.1C h=52.4% p=638.2hPa 403.000 MHz Type=RS41-SGP ser=U3614730 Radiosonde
KF0FCVU36147302022-12-07 13:17:4139.4823-104.89469694414Clb=-20.9m/s t=-11.3C h=56.5% p=589.2hPa 403.000 MHz Type=RS41-SGP ser=U3614730 Radiosonde
KF0FCVU36147302022-12-07 13:17:1039.4802-104.967635055Clb=-22.1m/s t=-17.0C h=71.8% p=541.3hPa 403.000 MHz Type=RS41-SGP ser=U3614730 Radiosonde
KF0FCVU36147302022-12-07 13:16:3939.4794-104.90687675716Clb=-21.0m/s t=-20.3C h=30.9% p=496.0hPa 403.000 MHz Type=RS41-SGP ser=U3614730 Radiosonde
KF0FCVU36147302022-12-07 13:16:0839.4786-104.91367636378Clb=-22.5m/s t=-26.3C h=36.3% p=453.0hPa 403.000 MHz Type=RS41-SGP ser=U3614730 Radiosonde
KF0FCVU36147302022-12-07 13:15:3639.4766-104.9270837074Clb=-22.6m/s t=-32.1C h=34.0% p=411.2hPa 403.000 MHz Type=RS41-SGP ser=U3614730 Radiosonde
KF0FCVU36147302022-12-07 13:15:0539.4737-104.93691527782Clb=-22.5m/s t=-33.1C h=3.2% p=371.9hPa 403.000 MHz Type=RS41-SGP ser=U3614730 Radiosonde
KF0FCVU36147302022-12-07 13:14:3439.4686-104.946691838462Clb=-23.7m/s t=-37.7C h=6.1% p=337.3hPa 403.000 MHz Type=RS41-SGP ser=U3614730 Radiosonde
KF0FCVU36147302022-12-07 13:14:0339.4631-104.963641969183Clb=-24.2m/s t=-42.7C h=7.7% p=303.5hPa 403.000 MHz Type=RS41-SGP ser=U3614730 Radiosonde
KF0FCVU36147302022-12-07 13:13:5239.456-104.9826422410007Clb=-25.1m/s t=-47.4C h=8.5% p=268.7hPa 403.000 MHz Type=RS41-SGP ser=U3614730 Radiosonde
KF0FCVU36147302022-12-07 13:13:5139.4475-105.0046525410695Clb=-21.7m/s t=-51.3C h=9.2% p=241.7hPa 403.000 MHz Type=RS41-SGP ser=U3614730 Radiosonde
KF0FCVU36147302022-12-07 13:13:5039.4398-105.0256323211359Clb=-22.4m/s t=-54.1C h=6.3% p=218.2hPa 403.000 MHz Type=RS41-SGP ser=U3614730 Radiosonde
KF0FCVU36147302022-12-07 13:13:3439.4318-105.0466422212083Clb=-23.7m/s t=-57.7C h=5.8% p=195.0hPa 403.000 MHz Type=RS41-SGP ser=U3614730 Radiosonde
KF0FCVU36147302022-12-07 13:13:0839.4252-105.0656418712780Clb=-24.6m/s t=-60.9C h=5.4% p=174.4hPa 403.000 MHz Type=RS41-SGP ser=U3614730 Radiosonde
KF0FCVU36147302022-12-07 13:12:4439.4178-105.0826120213541Clb=-25.7m/s t=-60.6C h=3.8% p=154.6hPa 403.000 MHz Type=RS41-SGP ser=U3614730 Radiosonde
KF0FCVU36147302022-12-07 13:12:1839.4115-105.1017018514381Clb=-26.7m/s t=-64.8C h=4.0% p=134.9hPa 403.000 MHz Type=RS41-SGP ser=U3614730 Radiosonde
KF0FCVU36147302022-12-07 13:11:5239.4085-105.1157615015181Clb=-29.2m/s t=-65.6C h=3.5% p=118.4hPa 403.000 MHz Type=RS41-SGP ser=U3614730 Radiosonde
KF0FCVU36147302022-12-07 13:11:2639.4054-105.1297113716136Clb=-31.3m/s t=-65.6C h=3.2% p=101.3hPa 403.000 MHz Type=RS41-SGP ser=U3614730 Radiosonde
KF0FCVU36147302022-12-07 13:10:5839.4023-105.1417912017146Clb=-34.7m/s t=-61.7C h=2.3% p=85.9hPa 403.000 MHz Type=RS41-SGP ser=U3614730 Radiosonde
KF0FCVU36147302022-12-07 13:10:3139.4021-105.1511045918277Clb=-37.0m/s t=-61.2C h=1.8% p=71.8hPa 403.000 MHz Type=RS41-SGP ser=U3614730 Radiosonde
KF0FCVU36147302022-12-07 13:10:0039.4028-105.155906519396Clb=-38.9m/s t=-64.2C h=2.1% p=59.9hPa 403.000 MHz Type=RS41-SGP ser=U3614730 Radiosonde
KF0FCVU36147302022-12-07 13:09:2739.4026-105.161475220637Clb=-43.8m/s t=-64.5C h=1.8% p=49.0hPa 403.000 MHz Type=RS41-SGP ser=U3614730 Radiosonde
KF0FCVU36147302022-12-07 13:08:5439.4024-105.1671107622061Clb=-49.3m/s t=-63.7C h=2.1% p=38.9hPa 403.000 MHz Type=RS41-SGP ser=U3614730 Radiosonde
KF0FCVU36147302022-12-07 13:08:2139.4042-105.1711024123667Clb=-55.0m/s t=-62.0C h=1.6% p=30.3hPa 403.000 MHz Type=RS41-SGP ser=U3614730 Radiosonde
KF0FCVU36147302022-12-07 13:07:4839.4048-105.177993125464Clb=-64.7m/s t=-52.5C h=0.9% p=22.9hPa 403.000 MHz Type=RS41-SGP ser=U3614730 Radiosonde
KF0FCVU36147302022-12-07 13:07:0739.4057-105.181956327680Clb=-64.8m/s t=-58.8C h=1.1% p=16.1hPa 403.000 MHz Type=RS41-SGP ser=U3614730 Radiosonde
KF0FCVU36147302022-12-07 13:06:3139.4065-105.1881047028180Clb=6.0m/s t=-59.9C h=1.3% p=14.5hPa 403.000 MHz Type=RS41-SGP ser=U3614730 Radiosonde
KF0FCVU36147302022-12-07 13:05:5339.408-105.1941095727993Clb=6.1m/s t=-60.4C h=1.3% p=14.9hPa 403.000 MHz Type=RS41-SGP ser=U3614730 Radiosonde
KF0FCVU36147302022-12-07 13:05:1239.4087-105.2926127808Clb=5.7m/s t=-59.2C h=1.3% p=15.4hPa 403.000 MHz Type=RS41-SGP ser=U3614730 Radiosonde
KF0FCVU36147302022-12-07 13:04:2939.4085-105.206875227629Clb=5.0m/s t=-58.2C h=1.1% p=15.8hPa 403.000 MHz Type=RS41-SGP ser=U3614730 Radiosonde
KF0FCVU36147302022-12-07 13:03:5239.4084-105.211924427467Clb=4.8m/s t=-58.0C h=1.2% p=16.2hPa 403.000 MHz Type=RS41-SGP ser=U3614730 Radiosonde
KF0FCVU36147302022-12-07 13:03:1439.4084-105.215953927326Clb=4.8m/s t=-57.5C h=1.1% p=16.6hPa 403.000 MHz Type=RS41-SGP ser=U3614730 Radiosonde
KF0FCVU36147302022-12-07 13:02:3239.4088-105.22863927208Clb=3.9m/s t=-57.5C h=1.2% p=16.9hPa 403.000 MHz Type=RS41-SGP ser=U3614730 Radiosonde
KF0FCVU36147302022-12-07 13:01:5139.4094-105.2241085027113Clb=3.5m/s t=-57.0C h=1.1% p=17.1hPa 403.000 MHz Type=RS41-SGP ser=U3614730 Radiosonde
KF0FCVU36147302022-12-07 13:01:0339.4108-105.2281184627011Clb=3.8m/s t=-57.4C h=1.2% p=17.4hPa 403.000 MHz Type=RS41-SGP ser=U3614730 Radiosonde
KF0FCVU36147302022-12-07 13:00:1039.4134-105.2321285926896Clb=3.9m/s t=-56.9C h=1.1% p=17.8hPa 403.000 MHz Type=RS41-SGP ser=U3614730 Radiosonde
KF0FCVU36147302022-12-07 12:59:3539.4162-105.2371205726738Clb=5.3m/s t=-57.5C h=1.2% p=18.2hPa 403.000 MHz Type=RS41-SGP ser=U3614730 Radiosonde
KF0FCVU36147302022-12-07 12:59:0339.418-105.2411035426563Clb=7.0m/s t=-57.3C h=1.2% p=18.7hPa 403.000 MHz Type=RS41-SGP ser=U3614730 Radiosonde
KF0FCVU36147302022-12-07 12:58:3339.4188-105.246963126360Clb=7.3m/s t=-56.1C h=1.1% p=19.3hPa 403.000 MHz Type=RS41-SGP ser=U3614730 Radiosonde
KF0FCVU36147302022-12-07 12:57:5939.4212-105.2711197625322Clb=4.9m/s t=-56.4C h=1.0% p=22.7hPa 403.000 MHz Type=RS41-SGP ser=U3614730 Radiosonde
KF0FCVU36147302022-12-07 12:57:5739.4233-105.278998525151Clb=5.4m/s t=-59.4C h=1.3% p=23.4hPa 403.000 MHz Type=RS41-SGP ser=U3614730 Radiosonde
KF0FCVU36147302022-12-07 12:57:5539.4245-105.286987224991Clb=5.8m/s t=-59.5C h=1.2% p=24.0hPa 403.000 MHz Type=RS41-SGP ser=U3614730 Radiosonde
KF0FCVU36147302022-12-07 12:57:5339.4254-105.292896124836Clb=5.6m/s t=-61.4C h=1.5% p=24.6hPa 403.000 MHz Type=RS41-SGP ser=U3614730 Radiosonde
KF0FCVU36147302022-12-07 12:57:5139.4259-105.298936524682Clb=4.2m/s t=-60.2C h=1.4% p=25.2hPa 403.000 MHz Type=RS41-SGP ser=U3614730 Radiosonde
KF0FCVU36147302022-12-07 12:57:4939.4265-105.304995724528Clb=5.6m/s t=-60.6C h=1.3% p=25.8hPa 403.000 MHz Type=RS41-SGP ser=U3614730 Radiosonde
KF0FCVU36147302022-12-07 12:57:4739.4275-105.311065924390Clb=3.1m/s t=-61.5C h=1.5% p=26.4hPa 403.000 MHz Type=RS41-SGP ser=U3614730 Radiosonde
KF0FCVU36147302022-12-07 12:57:4539.4284-105.3161095724274Clb=3.9m/s t=-61.6C h=1.5% p=26.9hPa 403.000 MHz Type=RS41-SGP ser=U3614730 Radiosonde
KF0FCVU36147302022-12-07 12:57:4139.429-105.3211064324141Clb=4.0m/s t=-61.6C h=1.4% p=27.5hPa 403.000 MHz Type=RS41-SGP ser=U3614730 Radiosonde
KF0FCVU36147302022-12-07 12:56:5639.43-105.3251113024028Clb=2.8m/s t=-62.8C h=1.6% p=28.0hPa 403.000 MHz Type=RS41-SGP ser=U3614730 Radiosonde
KF0FCVU36147302022-12-07 12:56:0139.4314-105.3271322823902Clb=5.5m/s t=-62.3C h=1.6% p=28.6hPa 403.000 MHz Type=RS41-SGP ser=U3614730 Radiosonde
KF0FCVU36147302022-12-07 12:55:0939.4329-105.3291452823770Clb=3.8m/s t=-61.5C h=1.5% p=29.2hPa 403.000 MHz Type=RS41-SGP ser=U3614730 Radiosonde
KF0FCVU36147302022-12-07 12:54:1739.4347-105.3311522623638Clb=4.4m/s t=-60.7C h=1.4% p=29.8hPa 403.000 MHz Type=RS41-SGP ser=U3614730 Radiosonde
KF0FCVU36147302022-12-07 12:53:2539.4364-105.3331762423513Clb=3.9m/s t=-60.2C h=1.4% p=30.4hPa 403.000 MHz Type=RS41-SGP ser=U3614730 Radiosonde
KF0FCVU36147302022-12-07 12:52:2539.4375-105.3331331123362Clb=6.9m/s t=-59.0C h=1.3% p=31.1hPa 403.000 MHz Type=RS41-SGP ser=U3614730 Radiosonde
KF0FCVU36147302022-12-07 12:51:2139.4388-105.3341622223141Clb=7.0m/s t=-56.9C h=1.2% p=32.3hPa 403.000 MHz Type=RS41-SGP ser=U3614730 Radiosonde
KF0FCVU36147302022-12-07 12:50:3039.4412-105.3351603022940Clb=7.5m/s t=-55.3C h=1.1% p=33.3hPa 403.000 MHz Type=RS41-SGP ser=U3614730 Radiosonde
KF0FCVU36147302022-12-07 12:49:3339.443-105.3381203122744Clb=5.6m/s t=-55.2C h=1.2% p=34.4hPa 403.000 MHz Type=RS41-SGP ser=U3614730 Radiosonde
KF0FCVU36147302022-12-07 12:48:3439.4444-105.3421106522581Clb=4.3m/s t=-55.5C h=1.2% p=35.2hPa 403.000 MHz Type=RS41-SGP ser=U3614730 Radiosonde
KF0FCVU36147302022-12-07 12:47:3339.4459-105.3491076722463Clb=3.6m/s t=-56.9C h=1.3% p=35.9hPa 403.000 MHz Type=RS41-SGP ser=U3614730 Radiosonde
KF0FCVU36147302022-12-07 12:46:2939.4486-105.3561207622369Clb=2.9m/s t=-59.2C h=1.5% p=36.4hPa 403.000 MHz Type=RS41-SGP ser=U3614730 Radiosonde
KF0FCVU36147302022-12-07 12:45:3239.4519-105.3631189422254Clb=4.6m/s t=-60.6C h=1.7% p=37.1hPa 403.000 MHz Type=RS41-SGP ser=U3614730 Radiosonde
KF0FCVU36147302022-12-07 12:44:3339.4549-105.3721169122127Clb=4.9m/s t=-62.2C h=1.8% p=37.9hPa 403.000 MHz Type=RS41-SGP ser=U3614730 Radiosonde
KF0FCVU36147302022-12-07 12:43:4639.457-105.3811108521979Clb=4.2m/s t=-65.4C h=2.4% p=38.8hPa 403.000 MHz Type=RS41-SGP ser=U3614730 Radiosonde
KF0FCVU36147302022-12-07 12:43:1539.4585-105.3891028121833Clb=5.3m/s t=-66.9C h=2.5% p=39.8hPa 403.000 MHz Type=RS41-SGP ser=U3614730 Radiosonde
KF0FCVU36147302022-12-07 12:42:3639.4594-105.397927821701Clb=4.5m/s t=-67.0C h=2.5% p=40.6hPa 403.000 MHz Type=RS41-SGP ser=U3614730 Radiosonde
KF0FCVU36147302022-12-07 12:41:5839.459-105.406818521572Clb=3.2m/s t=-67.3C h=2.6% p=41.5hPa 403.000 MHz Type=RS41-SGP ser=U3614730 Radiosonde
KF0FCVU36147302022-12-07 12:41:2639.4576-105.414838021463Clb=3.2m/s t=-67.0C h=2.5% p=42.2hPa 403.000 MHz Type=RS41-SGP ser=U3614730 Radiosonde
KF0FCVU36147302022-12-07 12:40:5939.4606-105.5558012618163Clb=2.6m/s t=-66.6C h=3.9% p=72.0hPa 403.000 MHz Type=RS41-SGP ser=U3614730 Radiosonde
KF0FCVU36147302022-12-07 12:39:5239.46-105.5689012418077Clb=2.3m/s t=-67.4C h=4.2% p=73.1hPa 403.000 MHz Type=RS41-SGP ser=U3614730 Radiosonde
KF0FCVU36147302022-12-07 12:38:3539.4599-105.5818912617965Clb=3.7m/s t=-68.3C h=4.6% p=74.4hPa 403.000 MHz Type=RS41-SGP ser=U3614730 Radiosonde
KF0FCVU36147302022-12-07 12:37:2439.4594-105.5938211917813Clb=5.3m/s t=-68.7C h=4.7% p=76.4hPa 403.000 MHz Type=RS41-SGP ser=U3614730 Radiosonde
KF0FCVU36147302022-12-07 12:36:1039.457-105.6057011517622Clb=7.2m/s t=-68.3C h=4.6% p=78.8hPa 403.000 MHz Type=RS41-SGP ser=U3614730 Radiosonde
KF0FCVU36147302022-12-07 12:34:5539.4539-105.6167011717444Clb=6.1m/s t=-68.0C h=4.5% p=81.2hPa 403.000 MHz Type=RS41-SGP ser=U3614730 Radiosonde
KF0FCVU36147302022-12-07 12:33:4139.4504-105.6276111717272Clb=4.9m/s t=-67.8C h=4.5% p=83.5hPa 403.000 MHz Type=RS41-SGP ser=U3614730 Radiosonde
KF0FCVU36147302022-12-07 12:32:3039.4458-105.6375511117111Clb=5.4m/s t=-67.4C h=4.5% p=85.8hPa 403.000 MHz Type=RS41-SGP ser=U3614730 Radiosonde
KF0FCVU36147302022-12-07 12:31:1539.4417-105.6466310416967Clb=5.3m/s t=-67.0C h=4.4% p=87.9hPa 403.000 MHz Type=RS41-SGP ser=U3614730 Radiosonde
KF0FCVU36147302022-12-07 12:29:5839.4387-105.6557110416828Clb=4.8m/s t=-67.3C h=4.4% p=90.0hPa 403.000 MHz Type=RS41-SGP ser=U3614730 Radiosonde
KF0FCVU36147302022-12-07 12:28:4339.4358-105.6657010016688Clb=4.5m/s t=-66.6C h=4.2% p=92.1hPa 403.000 MHz Type=RS41-SGP ser=U3614730 Radiosonde
KF0FCVU36147302022-12-07 12:27:2339.4331-105.6757110416547Clb=5.0m/s t=-67.0C h=4.3% p=94.3hPa 403.000 MHz Type=RS41-SGP ser=U3614730 Radiosonde
KF0FCVU36147302022-12-07 12:26:0539.4308-105.6857310416398Clb=4.7m/s t=-66.7C h=4.1% p=96.6hPa 403.000 MHz Type=RS41-SGP ser=U3614730 Radiosonde
KF0FCVU36147302022-12-07 12:24:4739.4282-105.6957511716243Clb=5.7m/s t=-66.7C h=4.0% p=99.1hPa 403.000 MHz Type=RS41-SGP ser=U3614730 Radiosonde
KF0FCVU36147302022-12-07 12:23:5339.4256-105.7067411316091Clb=3.7m/s t=-65.9C h=3.7% p=101.6hPa 403.000 MHz Type=RS41-SGP ser=U3614730 Radiosonde
KF0FCVU36147302022-12-07 12:23:2739.423-105.7177311315941Clb=4.2m/s t=-65.1C h=3.5% p=104.1hPa 403.000 MHz Type=RS41-SGP ser=U3614730 Radiosonde
KF0FCVU36147302022-12-07 12:22:5139.4207-105.7277510015797Clb=4.8m/s t=-64.1C h=3.3% p=106.6hPa 403.000 MHz Type=RS41-SGP ser=U3614730 Radiosonde
KF0FCVU36147302022-12-07 12:22:4239.4187-105.7367510715655Clb=5.3m/s t=-63.4C h=3.0% p=109.1hPa 403.000 MHz Type=RS41-SGP ser=U3614730 Radiosonde